createdAt,value
2019-04-28T00:01:22.000Z,279.09
2019-04-28T00:03:29.000Z,279.15
2019-04-28T00:04:53.000Z,279.15
2019-04-28T00:06:57.000Z,279.15
2019-04-28T00:08:32.000Z,279.15
2019-04-28T00:10:34.000Z,279.15
2019-04-28T00:11:58.000Z,279.15
2019-04-28T00:14:02.000Z,279.15
2019-04-28T00:15:26.000Z,279.15
2019-04-28T00:17:30.000Z,279.21
2019-04-28T00:18:58.000Z,279.21
2019-04-28T00:21:03.000Z,279.21
2019-04-28T00:22:32.000Z,279.21
2019-04-28T00:24:37.000Z,279.21
2019-04-28T00:26:10.000Z,279.21
2019-04-28T00:28:17.000Z,279.21
2019-04-28T00:29:49.000Z,279.27
2019-04-28T00:31:56.000Z,279.21
2019-04-28T00:33:20.000Z,279.21
2019-04-28T00:35:29.000Z,279.21
2019-04-28T00:37:00.000Z,279.21
2019-04-28T00:39:07.000Z,279.21
2019-04-28T00:40:34.000Z,279.21
2019-04-28T00:42:40.000Z,279.21
2019-04-28T00:44:12.000Z,279.21
2019-04-28T00:46:24.000Z,279.27
2019-04-28T00:47:54.000Z,279.27
2019-04-28T00:50:00.000Z,279.27
2019-04-28T00:51:27.000Z,279.27
2019-04-28T00:53:33.000Z,279.27
2019-04-28T00:54:59.000Z,279.27
2019-04-28T00:57:00.000Z,279.27
2019-04-28T00:58:24.000Z,279.27
2019-04-28T01:00:29.000Z,279.21
2019-04-28T01:01:54.000Z,279.21
2019-04-28T01:04:07.000Z,279.21
2019-04-28T01:05:38.000Z,279.15
2019-04-28T01:07:50.000Z,279.09
2019-04-28T01:09:20.000Z,279.09
2019-04-28T01:11:36.000Z,279.02
2019-04-28T01:12:59.000Z,279.02
2019-04-28T01:15:09.000Z,278.96
2019-04-28T01:16:39.000Z,278.96
2019-04-28T01:20:23.000Z,278.9
2019-04-28T01:21:11.000Z,278.9
2019-04-28T01:22:38.000Z,278.9
2019-04-28T01:24:46.000Z,278.84
2019-04-28T01:26:16.000Z,278.84
2019-04-28T01:28:29.000Z,278.77
2019-04-28T01:29:58.000Z,278.84
2019-04-28T01:32:17.000Z,278.84
2019-04-28T01:33:49.000Z,278.84
2019-04-28T01:35:59.000Z,278.77
2019-04-28T01:37:29.000Z,278.84
2019-04-28T01:39:37.000Z,278.84
2019-04-28T01:41:06.000Z,278.84
2019-04-28T01:43:14.000Z,278.84
2019-04-28T01:44:47.000Z,278.84
2019-04-28T01:46:57.000Z,278.77
2019-04-28T01:48:29.000Z,278.84
2019-04-28T01:50:41.000Z,278.84
2019-04-28T01:52:14.000Z,278.84
2019-04-28T01:54:24.000Z,278.84
2019-04-28T01:55:52.000Z,278.84
2019-04-28T01:58:03.000Z,278.84
2019-04-28T01:59:33.000Z,278.84
2019-04-28T02:01:43.000Z,278.84
2019-04-28T02:03:16.000Z,278.84
2019-04-28T02:05:29.000Z,278.84
2019-04-28T02:07:00.000Z,278.84
2019-04-28T02:09:11.000Z,278.84
2019-04-28T02:10:43.000Z,278.84
2019-04-28T02:18:08.000Z,278.84
2019-04-28T02:19:30.000Z,278.84
2019-04-28T02:21:32.000Z,278.77
2019-04-28T02:22:54.000Z,278.84
2019-04-28T02:24:55.000Z,278.77
2019-04-28T02:26:17.000Z,278.77
2019-04-28T02:28:18.000Z,278.71
2019-04-28T02:29:40.000Z,278.71
2019-04-28T02:31:41.000Z,278.71
2019-04-28T02:33:03.000Z,278.71
2019-04-28T02:35:04.000Z,278.65
2019-04-28T02:36:26.000Z,278.65
2019-04-28T02:38:30.000Z,278.65
2019-04-28T02:39:55.000Z,278.65
2019-04-28T02:41:56.000Z,278.59
2019-04-28T02:43:21.000Z,278.59
2019-04-28T02:45:22.000Z,278.59
2019-04-28T02:46:44.000Z,278.65
2019-04-28T02:48:45.000Z,278.59
2019-04-28T02:50:07.000Z,278.59
2019-04-28T02:52:10.000Z,278.59
2019-04-28T02:53:32.000Z,278.52
2019-04-28T02:55:33.000Z,278.52
2019-04-28T02:56:55.000Z,278.52
2019-04-28T02:58:57.000Z,278.52
2019-04-28T03:00:21.000Z,278.52
2019-04-28T03:02:22.000Z,278.52
2019-04-28T03:03:44.000Z,278.52
2019-04-28T03:05:45.000Z,278.46
2019-04-28T03:07:11.000Z,278.46
2019-04-28T03:09:16.000Z,278.46
2019-04-28T03:10:40.000Z,278.4
2019-04-28T03:12:43.000Z,278.34
2019-04-28T03:14:06.000Z,278.27
2019-04-28T03:16:10.000Z,278.21
2019-04-28T03:17:32.000Z,278.15
2019-04-28T03:19:34.000Z,278.21
2019-04-28T03:20:56.000Z,278.15
2019-04-28T03:23:03.000Z,278.15
2019-04-28T03:24:33.000Z,278.09
2019-04-28T03:26:35.000Z,278.09
2019-04-28T03:27:57.000Z,278.15
2019-04-28T03:30:00.000Z,278.09
2019-04-28T03:31:23.000Z,278.09
2019-04-28T03:34:03.000Z,277.96
2019-04-28T03:35:26.000Z,278.02
2019-04-28T03:37:32.000Z,278.02
2019-04-28T03:38:55.000Z,278.02
2019-04-28T03:40:57.000Z,278.09
2019-04-28T03:42:21.000Z,278.09
2019-04-28T03:44:23.000Z,278.09
2019-04-28T03:45:46.000Z,278.15
2019-04-28T03:47:50.000Z,278.09
2019-04-28T03:49:12.000Z,278.09
2019-04-28T03:51:15.000Z,278.09
2019-04-28T03:52:41.000Z,278.02
2019-04-28T03:54:43.000Z,277.96
2019-04-28T03:56:08.000Z,278.02
2019-04-28T03:58:14.000Z,278.02
2019-04-28T03:59:37.000Z,278.02
2019-04-28T04:01:44.000Z,278.02
2019-04-28T04:03:19.000Z,278.02
2019-04-28T04:05:21.000Z,277.96
2019-04-28T04:06:45.000Z,278.02
2019-04-28T04:08:49.000Z,277.96
2019-04-28T04:10:12.000Z,277.9
2019-04-28T04:12:16.000Z,277.9
2019-04-28T04:13:43.000Z,277.9
2019-04-28T04:15:46.000Z,277.84
2019-04-28T04:17:17.000Z,277.84
2019-04-28T04:19:22.000Z,277.77
2019-04-28T04:20:46.000Z,277.77
2019-04-28T04:22:50.000Z,277.84
2019-04-28T04:24:15.000Z,277.9
2019-04-28T04:26:19.000Z,277.96
2019-04-28T04:27:41.000Z,277.9
2019-04-28T04:29:44.000Z,277.9
2019-04-28T04:31:10.000Z,277.96
2019-04-28T04:33:17.000Z,277.96
2019-04-28T04:34:44.000Z,277.96
2019-04-28T04:36:49.000Z,277.96
2019-04-28T04:38:15.000Z,277.96
2019-04-28T04:40:18.000Z,278.02
2019-04-28T04:41:47.000Z,278.02
2019-04-28T04:43:52.000Z,278.02
2019-04-28T04:45:20.000Z,278.09
2019-04-28T04:47:24.000Z,278.09
2019-04-28T04:48:52.000Z,278.09
2019-04-28T04:50:55.000Z,278.09
2019-04-28T04:52:25.000Z,278.15
2019-04-28T04:54:32.000Z,278.15
2019-04-28T04:55:57.000Z,278.21
2019-04-28T04:58:02.000Z,278.21
2019-04-28T04:59:29.000Z,278.21
2019-04-28T05:01:33.000Z,278.27
2019-04-28T05:02:56.000Z,278.21
2019-04-28T05:05:06.000Z,278.27
2019-04-28T05:06:39.000Z,278.27
2019-04-28T05:08:41.000Z,278.27
2019-04-28T05:10:06.000Z,278.27
2019-04-28T05:12:10.000Z,278.34
2019-04-28T05:13:37.000Z,278.34
2019-04-28T05:15:41.000Z,278.4
2019-04-28T05:17:08.000Z,278.4
2019-04-28T05:19:09.000Z,278.4
2019-04-28T05:20:33.000Z,278.34
2019-04-28T05:22:35.000Z,278.34
2019-04-28T05:24:02.000Z,278.4
2019-04-28T05:26:08.000Z,278.46
2019-04-28T05:27:35.000Z,278.4
2019-04-28T05:29:43.000Z,278.59
2019-04-28T05:31:11.000Z,278.59
2019-04-28T05:33:30.000Z,278.59
2019-04-28T05:34:57.000Z,278.65
2019-04-28T05:37:03.000Z,278.65
2019-04-28T05:38:30.000Z,278.71
2019-04-28T05:40:34.000Z,278.71
2019-04-28T05:42:02.000Z,278.77
2019-04-28T05:44:12.000Z,278.71
2019-04-28T05:45:39.000Z,278.77
2019-04-28T05:47:47.000Z,278.77
2019-04-28T05:49:12.000Z,278.77
2019-04-28T05:51:17.000Z,278.84
2019-04-28T05:52:43.000Z,278.84
2019-04-28T05:54:49.000Z,278.9
2019-04-28T05:56:15.000Z,278.9
2019-04-28T05:58:20.000Z,278.9
2019-04-28T05:59:49.000Z,279.02
2019-04-28T06:02:06.000Z,279.09
2019-04-28T06:03:35.000Z,279.02
2019-04-28T06:05:45.000Z,279.09
2019-04-28T06:07:20.000Z,279.21
2019-04-28T06:09:30.000Z,279.21
2019-04-28T06:10:57.000Z,279.15
2019-04-28T06:13:07.000Z,279.15
2019-04-28T06:14:39.000Z,279.15
2019-04-28T06:16:55.000Z,279.21
2019-04-28T06:18:31.000Z,279.21
2019-04-28T06:26:40.000Z,279.27
2019-04-28T06:28:02.000Z,279.27
2019-04-28T06:30:03.000Z,279.27
2019-04-28T06:31:25.000Z,279.21
2019-04-28T06:33:27.000Z,279.34
2019-04-28T06:34:54.000Z,279.46
2019-04-28T06:42:59.000Z,279.59
2019-04-28T06:44:21.000Z,279.59
2019-04-28T06:46:22.000Z,279.52
2019-04-28T06:47:44.000Z,279.52
2019-04-28T06:49:45.000Z,279.46
2019-04-28T06:51:07.000Z,279.59
2019-04-28T06:53:08.000Z,279.59
2019-04-28T06:54:30.000Z,279.52
2019-04-28T06:56:31.000Z,279.59
2019-04-28T06:57:53.000Z,279.59
2019-04-28T06:59:54.000Z,279.59
2019-04-28T07:01:16.000Z,279.71
2019-04-28T07:03:17.000Z,279.77
2019-04-28T07:04:43.000Z,279.71
2019-04-28T07:06:44.000Z,279.71
2019-04-28T07:08:06.000Z,279.65
2019-04-28T07:10:07.000Z,279.77
2019-04-28T07:11:29.000Z,280.02
2019-04-28T07:13:31.000Z,280.09
2019-04-28T07:14:53.000Z,280.09
2019-04-28T07:16:54.000Z,280.15
2019-04-28T07:18:17.000Z,280.15
2019-04-28T07:20:18.000Z,280.09
2019-04-28T07:21:40.000Z,279.96
2019-04-28T07:23:42.000Z,279.9
2019-04-28T07:25:04.000Z,279.84
2019-04-28T07:27:06.000Z,279.9
2019-04-28T07:28:29.000Z,280.02
2019-04-28T07:30:29.000Z,280.09
2019-04-28T07:31:52.000Z,280.15
2019-04-28T07:33:55.000Z,280.27
2019-04-28T07:35:19.000Z,280.46
2019-04-28T07:37:21.000Z,280.59
2019-04-28T07:38:43.000Z,280.65
2019-04-28T07:40:44.000Z,280.84
2019-04-28T07:42:07.000Z,280.96
2019-04-28T07:44:12.000Z,280.84
2019-04-28T07:45:35.000Z,280.84
2019-04-28T07:47:36.000Z,280.9
2019-04-28T07:49:00.000Z,281.09
2019-04-28T07:51:03.000Z,281.27
2019-04-28T07:52:27.000Z,281.46
2019-04-28T07:54:28.000Z,281.71
2019-04-28T07:55:52.000Z,282.02
2019-04-28T07:57:54.000Z,282.09
2019-04-28T07:59:18.000Z,282.15
2019-04-28T08:01:20.000Z,282.4
2019-04-28T08:02:43.000Z,282.52
2019-04-28T08:04:45.000Z,282.15
2019-04-28T08:06:08.000Z,281.96
2019-04-28T08:08:10.000Z,281.9
2019-04-28T08:09:34.000Z,281.71
2019-04-28T08:11:37.000Z,281.77
2019-04-28T08:13:02.000Z,282.15
2019-04-28T08:15:06.000Z,282.02
2019-04-28T08:16:28.000Z,281.96
2019-04-28T08:18:33.000Z,282.09
2019-04-28T08:19:58.000Z,281.9
2019-04-28T08:22:00.000Z,282.02
2019-04-28T08:23:22.000Z,282.09
2019-04-28T08:25:24.000Z,282.52
2019-04-28T08:26:47.000Z,282.4
2019-04-28T08:28:49.000Z,282.02
2019-04-28T08:30:11.000Z,281.96
2019-04-28T08:32:14.000Z,281.96
2019-04-28T08:33:36.000Z,281.84
2019-04-28T08:35:39.000Z,281.77
2019-04-28T08:37:02.000Z,281.9
2019-04-28T08:39:05.000Z,282.21
2019-04-28T08:40:31.000Z,282.34
2019-04-28T08:42:34.000Z,282.27
2019-04-28T08:43:56.000Z,282.21
2019-04-28T08:45:58.000Z,282.4
2019-04-28T08:47:30.000Z,282.65
2019-04-28T08:49:35.000Z,282.71
2019-04-28T08:50:59.000Z,283.09
2019-04-28T08:53:01.000Z,282.96
2019-04-28T08:54:25.000Z,282.96
2019-04-28T08:56:26.000Z,283.02
2019-04-28T08:57:52.000Z,282.65
2019-04-28T09:00:00.000Z,282.59
2019-04-28T09:01:22.000Z,283.02
2019-04-28T09:03:24.000Z,283.34
2019-04-28T09:04:49.000Z,282.9
2019-04-28T09:06:52.000Z,282.71
2019-04-28T09:08:15.000Z,282.46
2019-04-28T09:10:20.000Z,282.59
2019-04-28T09:11:49.000Z,283.15
2019-04-28T09:13:51.000Z,282.96
2019-04-28T09:15:20.000Z,282.84
2019-04-28T09:17:25.000Z,282.84
2019-04-28T09:18:51.000Z,282.9
2019-04-28T09:20:56.000Z,282.77
2019-04-28T09:22:21.000Z,282.84
2019-04-28T09:24:23.000Z,282.77
2019-04-28T09:25:47.000Z,282.77
2019-04-28T09:27:55.000Z,283.21
2019-04-28T09:29:19.000Z,283.15
2019-04-28T09:31:26.000Z,283.21
2019-04-28T09:32:57.000Z,283.27
2019-04-28T09:35:02.000Z,283.59
2019-04-28T09:36:29.000Z,283.46
2019-04-28T09:38:39.000Z,282.96
2019-04-28T09:40:04.000Z,283.02
2019-04-28T09:42:11.000Z,282.52
2019-04-28T09:43:37.000Z,282.77
2019-04-28T09:45:43.000Z,283.27
2019-04-28T09:47:09.000Z,283.09
2019-04-28T09:49:11.000Z,282.84
2019-04-28T09:50:39.000Z,282.96
2019-04-28T09:52:46.000Z,282.84
2019-04-28T09:54:14.000Z,282.84
2019-04-28T09:56:22.000Z,282.52
2019-04-28T09:57:51.000Z,282.65
2019-04-28T09:59:59.000Z,282.77
2019-04-28T10:01:25.000Z,282.71
2019-04-28T10:03:30.000Z,282.27
2019-04-28T10:05:00.000Z,282.21
2019-04-28T10:07:10.000Z,282.21
2019-04-28T10:08:42.000Z,282.52
2019-04-28T10:10:48.000Z,282.4
2019-04-28T10:12:19.000Z,282.46
2019-04-28T10:14:28.000Z,282.52
2019-04-28T10:16:00.000Z,282.71
2019-04-28T10:18:06.000Z,282.9
2019-04-28T10:19:32.000Z,282.77
2019-04-28T10:21:42.000Z,282.59
2019-04-28T10:23:15.000Z,282.46
2019-04-28T10:25:24.000Z,282.52
2019-04-28T10:26:51.000Z,282.46
2019-04-28T10:28:59.000Z,282.46
2019-04-28T10:30:23.000Z,282.21
2019-04-28T10:32:31.000Z,282.4
2019-04-28T10:34:02.000Z,282.77
2019-04-28T10:36:10.000Z,282.77
2019-04-28T10:37:40.000Z,283.09
2019-04-28T10:39:56.000Z,283.27
2019-04-28T10:41:19.000Z,283.09
2019-04-28T10:43:25.000Z,283.02
2019-04-28T10:44:52.000Z,283.15
2019-04-28T10:46:56.000Z,282.77
2019-04-28T10:48:23.000Z,282.96
2019-04-28T10:50:33.000Z,282.96
2019-04-28T10:52:03.000Z,282.96
2019-04-28T10:54:15.000Z,282.96
2019-04-28T10:55:46.000Z,282.84
2019-04-28T10:57:53.000Z,282.4
2019-04-28T10:59:25.000Z,282.52
2019-04-28T11:01:36.000Z,282.46
2019-04-28T11:03:06.000Z,282.59
2019-04-28T11:05:19.000Z,282.27
2019-04-28T11:06:54.000Z,282.21
2019-04-28T11:09:05.000Z,282.34
2019-04-28T11:10:37.000Z,282.27
2019-04-28T11:12:43.000Z,282.52
2019-04-28T11:14:17.000Z,282.9
2019-04-28T11:16:27.000Z,283.09
2019-04-28T11:17:52.000Z,283.15
2019-04-28T11:20:01.000Z,283.21
2019-04-28T11:21:30.000Z,283.15
2019-04-28T11:23:39.000Z,283.52
2019-04-28T11:25:12.000Z,283.65
2019-04-28T11:27:25.000Z,283.46
2019-04-28T11:28:54.000Z,283.46
2019-04-28T11:36:21.000Z,283.46
2019-04-28T11:37:43.000Z,283.59
2019-04-28T11:39:50.000Z,283.65
2019-04-28T11:41:12.000Z,283.84
2019-04-28T11:43:14.000Z,284.02
2019-04-28T11:44:36.000Z,284.02
2019-04-28T11:46:36.000Z,284.34
2019-04-28T11:47:58.000Z,284.46
2019-04-28T11:49:59.000Z,284.4
2019-04-28T11:51:21.000Z,284.34
2019-04-28T11:53:22.000Z,284.27
2019-04-28T11:54:44.000Z,284.02
2019-04-28T11:56:46.000Z,283.65
2019-04-28T11:58:08.000Z,283.65
2019-04-28T12:00:09.000Z,283.9
2019-04-28T12:01:32.000Z,283.59
2019-04-28T12:03:33.000Z,283.96
2019-04-28T12:04:55.000Z,284.27
2019-04-28T12:06:57.000Z,284.27
2019-04-28T12:08:21.000Z,284.21
2019-04-28T12:10:22.000Z,284.27
2019-04-28T12:11:44.000Z,284.4
2019-04-28T12:13:46.000Z,284.46
2019-04-28T12:15:08.000Z,284.52
2019-04-28T12:17:10.000Z,284.77
2019-04-28T12:18:36.000Z,284.9
2019-04-28T12:20:39.000Z,284.96
2019-04-28T12:22:00.000Z,285.02
2019-04-28T12:24:02.000Z,284.9
2019-04-28T12:25:25.000Z,284.84
2019-04-28T12:27:26.000Z,284.59
2019-04-28T12:28:49.000Z,284.77
2019-04-28T12:30:52.000Z,284.9
2019-04-28T12:32:15.000Z,284.46
2019-04-28T12:34:16.000Z,283.84
2019-04-28T12:35:38.000Z,283.84
2019-04-28T12:37:47.000Z,283.84
2019-04-28T12:39:11.000Z,283.9
2019-04-28T12:41:13.000Z,283.96
2019-04-28T12:42:35.000Z,283.65
2019-04-28T12:44:37.000Z,284.09
2019-04-28T12:46:00.000Z,284.21
2019-04-28T12:48:01.000Z,284.46
2019-04-28T12:49:25.000Z,284.71
2019-04-28T12:51:30.000Z,284.96
2019-04-28T12:52:52.000Z,285.21
2019-04-28T12:54:53.000Z,285.4
2019-04-28T12:56:15.000Z,284.9
2019-04-28T12:58:18.000Z,284.84
2019-04-28T12:59:40.000Z,285.21
2019-04-28T13:01:41.000Z,285.15
2019-04-28T13:03:04.000Z,284.96
2019-04-28T13:05:05.000Z,285.52
2019-04-28T13:06:28.000Z,286.15
2019-04-28T13:08:30.000Z,285.71
2019-04-28T13:10:00.000Z,285.84
2019-04-28T13:12:03.000Z,286.27
2019-04-28T13:13:25.000Z,286.09
2019-04-28T13:15:27.000Z,286.02
2019-04-28T13:16:51.000Z,285.96
2019-04-28T13:18:55.000Z,286.15
2019-04-28T13:20:17.000Z,286.34
2019-04-28T13:22:18.000Z,286.02
2019-04-28T13:23:41.000Z,286.21
2019-04-28T13:25:45.000Z,286.46
2019-04-28T13:27:09.000Z,286.46
2019-04-28T13:29:17.000Z,286.59
2019-04-28T13:30:41.000Z,286.59
2019-04-28T13:32:46.000Z,286.4
2019-04-28T13:34:10.000Z,286.59
2019-04-28T13:36:12.000Z,286.4
2019-04-28T13:37:38.000Z,286.34
2019-04-28T13:39:44.000Z,285.34
2019-04-28T13:41:07.000Z,285.21
2019-04-28T13:43:08.000Z,285.02
2019-04-28T13:44:31.000Z,285.27
2019-04-28T13:46:35.000Z,285.59
2019-04-28T13:47:59.000Z,286.02
2019-04-28T13:50:00.000Z,286.65
2019-04-28T13:51:28.000Z,286.9
2019-04-28T13:53:30.000Z,286.52
2019-04-28T13:54:56.000Z,286.84
2019-04-28T13:57:00.000Z,286.96
2019-04-28T13:58:27.000Z,286.65
2019-04-28T14:00:31.000Z,286.65
2019-04-28T14:01:57.000Z,286.59
2019-04-28T14:04:03.000Z,286.59
2019-04-28T14:05:29.000Z,286.34
2019-04-28T14:07:34.000Z,286.59
2019-04-28T14:09:00.000Z,286.65
2019-04-28T14:11:05.000Z,286.59
2019-04-28T14:12:29.000Z,286.9
2019-04-28T14:14:38.000Z,286.65
2019-04-28T14:16:04.000Z,286.4
2019-04-28T14:18:10.000Z,286.09
2019-04-28T14:19:37.000Z,286.15
2019-04-28T14:21:41.000Z,286.34
2019-04-28T14:23:04.000Z,286.4
2019-04-28T14:25:13.000Z,285.77
2019-04-28T14:26:35.000Z,285.52
2019-04-28T14:28:46.000Z,286.27
2019-04-28T14:30:10.000Z,286.77
2019-04-28T14:32:11.000Z,287.4
2019-04-28T14:33:34.000Z,287.52
2019-04-28T14:35:37.000Z,286.96
2019-04-28T14:37:05.000Z,286.71
2019-04-28T14:39:08.000Z,287.59
2019-04-28T14:40:33.000Z,287.84
2019-04-28T14:42:37.000Z,288.15
2019-04-28T14:44:02.000Z,288.27
2019-04-28T14:46:07.000Z,287.65
2019-04-28T14:47:30.000Z,287.52
2019-04-28T14:49:39.000Z,287.34
2019-04-28T14:51:06.000Z,287.84
2019-04-28T14:53:12.000Z,287.4
2019-04-28T14:54:42.000Z,287.46
2019-04-28T14:56:47.000Z,286.21
2019-04-28T14:58:13.000Z,286.46
2019-04-28T15:00:21.000Z,286.77
2019-04-28T15:01:48.000Z,286.4
2019-04-28T15:03:57.000Z,285.71
2019-04-28T15:05:22.000Z,285.52
2019-04-28T15:07:31.000Z,285.59
2019-04-28T15:08:55.000Z,285.65
2019-04-28T15:11:05.000Z,285.9
2019-04-28T15:12:33.000Z,286.21
2019-04-28T15:14:46.000Z,286.59
2019-04-28T15:16:14.000Z,286.46
2019-04-28T15:18:25.000Z,287.02
2019-04-28T15:19:57.000Z,287.4
2019-04-28T15:22:06.000Z,287.27
2019-04-28T15:23:32.000Z,287.02
2019-04-28T15:25:40.000Z,287.27
2019-04-28T15:27:10.000Z,287.46
2019-04-28T15:29:21.000Z,287.77
2019-04-28T15:30:48.000Z,288.15
2019-04-28T15:32:56.000Z,288.34
2019-04-28T15:34:25.000Z,288.15
2019-04-28T15:36:35.000Z,287.59
2019-04-28T15:38:01.000Z,287.96
2019-04-28T15:40:07.000Z,288.15
2019-04-28T15:41:36.000Z,288.21
2019-04-28T15:43:51.000Z,288.34
2019-04-28T15:45:24.000Z,288.34
2019-04-28T15:49:03.000Z,287.96
2019-04-28T15:55:21.000Z,287.34
2019-04-28T15:56:43.000Z,287.27
2019-04-28T15:58:44.000Z,286.84
2019-04-28T16:00:08.000Z,286.65
2019-04-28T16:02:09.000Z,286.59
2019-04-28T16:03:31.000Z,286.4
2019-04-28T16:05:32.000Z,286.15
2019-04-28T16:06:55.000Z,286.02
2019-04-28T16:08:56.000Z,286.02
2019-04-28T16:10:18.000Z,286.09
2019-04-28T16:12:19.000Z,286.15
2019-04-28T16:13:42.000Z,286.02
2019-04-28T16:15:43.000Z,285.77
2019-04-28T16:17:05.000Z,285.77
2019-04-28T16:19:06.000Z,286.02
2019-04-28T16:20:28.000Z,286.02
2019-04-28T16:22:29.000Z,286.15
2019-04-28T16:23:52.000Z,286.15
2019-04-28T16:25:55.000Z,285.96
2019-04-28T16:27:17.000Z,285.84
2019-04-28T16:29:19.000Z,285.46
2019-04-28T16:30:41.000Z,285.34
2019-04-28T16:32:43.000Z,285.27
2019-04-28T16:34:05.000Z,285.15
2019-04-28T16:36:06.000Z,285.15
2019-04-28T16:37:29.000Z,285.09
2019-04-28T16:39:38.000Z,285.02
2019-04-28T16:41:01.000Z,284.96
2019-04-28T16:43:02.000Z,284.59
2019-04-28T16:44:24.000Z,284.4
2019-04-28T16:46:25.000Z,284.34
2019-04-28T16:47:48.000Z,284.34
2019-04-28T16:49:53.000Z,284.4
2019-04-28T16:51:15.000Z,284.21
2019-04-28T16:53:16.000Z,284.09
2019-04-28T16:54:38.000Z,284.09
2019-04-28T16:56:40.000Z,284.21
2019-04-28T16:58:04.000Z,284.27
2019-04-28T17:00:05.000Z,284.27
2019-04-28T17:01:28.000Z,284.27
2019-04-28T17:03:30.000Z,284.21
2019-04-28T17:04:53.000Z,284.4
2019-04-28T17:06:56.000Z,284.59
2019-04-28T17:08:21.000Z,284.71
2019-04-28T17:10:23.000Z,284.65
2019-04-28T17:11:45.000Z,284.52
2019-04-28T17:13:46.000Z,284.46
2019-04-28T17:15:08.000Z,284.34
2019-04-28T17:17:10.000Z,284.4
2019-04-28T17:18:34.000Z,284.4
2019-04-28T17:20:37.000Z,284.27
2019-04-28T17:22:01.000Z,284.15
2019-04-28T17:24:03.000Z,284.09
2019-04-28T17:25:28.000Z,284.02
2019-04-28T17:27:33.000Z,283.77
2019-04-28T17:28:56.000Z,283.71
2019-04-28T17:30:59.000Z,283.71
2019-04-28T17:32:23.000Z,283.77
2019-04-28T17:34:24.000Z,283.71
2019-04-28T17:35:47.000Z,283.71
2019-04-28T17:37:48.000Z,283.71
2019-04-28T17:39:11.000Z,283.52
2019-04-28T17:41:13.000Z,283.15
2019-04-28T17:42:35.000Z,282.96
2019-04-28T17:44:40.000Z,282.96
2019-04-28T17:46:03.000Z,282.9
2019-04-28T17:48:04.000Z,282.77
2019-04-28T17:49:28.000Z,282.9
2019-04-28T17:51:30.000Z,282.84
2019-04-28T17:52:56.000Z,282.77
2019-04-28T17:55:00.000Z,282.71
2019-04-28T17:56:22.000Z,282.65
2019-04-28T17:58:25.000Z,282.65
2019-04-28T17:59:47.000Z,282.52
2019-04-28T18:01:50.000Z,282.4
2019-04-28T18:03:15.000Z,282.21
2019-04-28T18:05:18.000Z,282.09
2019-04-28T18:06:40.000Z,281.96
2019-04-28T18:08:42.000Z,281.9
2019-04-28T18:10:04.000Z,281.9
2019-04-28T18:12:12.000Z,281.77
2019-04-28T18:13:36.000Z,281.77
2019-04-28T18:15:39.000Z,281.71
2019-04-28T18:17:07.000Z,281.71
2019-04-28T18:19:11.000Z,281.77
2019-04-28T18:20:37.000Z,281.65
2019-04-28T18:22:48.000Z,281.52
2019-04-28T18:24:16.000Z,281.4
2019-04-28T18:26:19.000Z,281.21
2019-04-28T18:27:42.000Z,281.21
2019-04-28T18:29:47.000Z,281.15
2019-04-28T18:31:11.000Z,281.09
2019-04-28T18:33:16.000Z,280.77
2019-04-28T18:34:40.000Z,280.65
2019-04-28T18:36:48.000Z,280.52
2019-04-28T18:38:12.000Z,280.4
2019-04-28T18:40:22.000Z,280.46
2019-04-28T18:41:46.000Z,280.4
2019-04-28T18:43:59.000Z,280.27
2019-04-28T18:45:23.000Z,280.34
2019-04-28T18:47:30.000Z,280.71
2019-04-28T18:48:56.000Z,280.77
2019-04-28T18:51:00.000Z,280.77
2019-04-28T18:52:24.000Z,280.77
2019-04-28T18:54:30.000Z,280.71
2019-04-28T18:55:55.000Z,280.65
2019-04-28T18:58:02.000Z,280.34
2019-04-28T18:59:27.000Z,280.09
2019-04-28T19:01:35.000Z,279.9
2019-04-28T19:03:02.000Z,279.9
2019-04-28T19:05:07.000Z,280.02
2019-04-28T19:06:34.000Z,280.09
2019-04-28T19:08:42.000Z,279.96
2019-04-28T19:10:13.000Z,279.9
2019-04-28T19:12:17.000Z,279.9
2019-04-28T19:13:41.000Z,279.84
2019-04-28T19:15:50.000Z,279.46
2019-04-28T19:17:18.000Z,279.34
2019-04-28T19:19:21.000Z,279.21
2019-04-28T19:20:47.000Z,279.15
2019-04-28T19:22:51.000Z,279.02
2019-04-28T19:24:22.000Z,278.96
2019-04-28T19:26:30.000Z,278.9
2019-04-28T19:27:57.000Z,278.84
2019-04-28T19:30:07.000Z,278.84
2019-04-28T19:31:39.000Z,278.65
2019-04-28T19:33:45.000Z,278.34
2019-04-28T19:35:15.000Z,278.27
2019-04-28T19:37:24.000Z,278.27
2019-04-28T19:38:52.000Z,278.21
2019-04-28T19:41:11.000Z,278.21
2019-04-28T19:42:39.000Z,278.27
2019-04-28T19:44:47.000Z,278.15
2019-04-28T19:46:12.000Z,278.09
2019-04-28T19:48:25.000Z,278.02
2019-04-28T19:49:52.000Z,278.09
2019-04-28T19:52:02.000Z,278.02
2019-04-28T19:53:30.000Z,277.9
2019-04-28T19:55:40.000Z,277.77
2019-04-28T19:57:11.000Z,277.84
2019-04-28T19:59:20.000Z,277.77
2019-04-28T20:00:46.000Z,277.77
2019-04-28T20:02:53.000Z,277.52
2019-04-28T20:04:23.000Z,277.4
2019-04-28T20:06:33.000Z,277.4
2019-04-28T20:07:59.000Z,277.27
2019-04-28T20:11:45.000Z,277.4
2019-04-28T20:12:35.000Z,277.4
2019-04-28T20:14:03.000Z,277.27
2019-04-28T20:16:13.000Z,277.27
2019-04-28T20:17:42.000Z,277.27
2019-04-28T20:19:48.000Z,277.27
2019-04-28T20:21:18.000Z,277.21
2019-04-28T20:23:28.000Z,277.09
2019-04-28T20:24:56.000Z,277.02
2019-04-28T20:27:08.000Z,276.96
2019-04-28T20:28:36.000Z,276.9
2019-04-28T20:30:46.000Z,276.71
2019-04-28T20:32:19.000Z,276.77
2019-04-28T20:34:30.000Z,276.71
2019-04-28T20:36:00.000Z,276.65
2019-04-28T20:38:13.000Z,276.71
2019-04-28T20:39:42.000Z,276.65
2019-04-28T20:47:12.000Z,276.46
2019-04-28T20:48:34.000Z,276.52
2019-04-28T20:50:35.000Z,276.52
2019-04-28T20:51:57.000Z,276.65
2019-04-28T20:53:58.000Z,276.46
2019-04-28T20:55:20.000Z,276.4
2019-04-28T20:57:21.000Z,276.46
2019-04-28T20:58:43.000Z,276.34
2019-04-28T21:00:44.000Z,276.59
2019-04-28T21:02:06.000Z,276.59
2019-04-28T21:04:07.000Z,276.65
2019-04-28T21:05:30.000Z,276.46
2019-04-28T21:07:30.000Z,276.34
2019-04-28T21:08:52.000Z,276.27
2019-04-28T21:10:54.000Z,276.27
2019-04-28T21:12:16.000Z,276.27
2019-04-28T21:14:17.000Z,276.21
2019-04-28T21:15:41.000Z,276.21
2019-04-28T21:17:42.000Z,276.21
2019-04-28T21:19:05.000Z,276.21
2019-04-28T21:21:08.000Z,276.02
2019-04-28T21:22:30.000Z,276.02
2019-04-28T21:24:32.000Z,276.09
2019-04-28T21:25:54.000Z,276.15
2019-04-28T21:27:56.000Z,275.96
2019-04-28T21:29:18.000Z,275.84
2019-04-28T21:31:20.000Z,275.71
2019-04-28T21:32:43.000Z,275.71
2019-04-28T21:34:45.000Z,275.71
2019-04-28T21:36:08.000Z,275.65
2019-04-28T21:38:10.000Z,275.71
2019-04-28T21:39:32.000Z,275.65
2019-04-28T21:41:32.000Z,275.65
2019-04-28T21:42:54.000Z,275.65
2019-04-28T21:44:55.000Z,275.65
2019-04-28T21:46:17.000Z,275.65
2019-04-28T21:48:18.000Z,275.71
2019-04-28T21:49:42.000Z,275.59
2019-04-28T21:51:43.000Z,275.46
2019-04-28T21:53:05.000Z,275.52
2019-04-28T21:55:06.000Z,275.59
2019-04-28T21:56:28.000Z,275.59
2019-04-28T21:58:29.000Z,275.59
2019-04-28T21:59:53.000Z,275.46
2019-04-28T22:01:54.000Z,275.34
2019-04-28T22:03:17.000Z,275.34
2019-04-28T22:05:18.000Z,275.4
2019-04-28T22:06:50.000Z,275.27
2019-04-28T22:08:52.000Z,275.15
2019-04-28T22:10:15.000Z,275.15
2019-04-28T22:12:16.000Z,275.15
2019-04-28T22:13:38.000Z,275.15
2019-04-28T22:15:39.000Z,275.15
2019-04-28T22:17:01.000Z,275.09
2019-04-28T22:19:05.000Z,275.02
2019-04-28T22:20:29.000Z,275.21
2019-04-28T22:22:31.000Z,275.21
2019-04-28T22:23:54.000Z,275.09
2019-04-28T22:25:57.000Z,275.09
2019-04-28T22:27:21.000Z,275.09
2019-04-28T22:29:27.000Z,274.96
2019-04-28T22:30:52.000Z,274.9
2019-04-28T22:32:58.000Z,274.96
2019-04-28T22:34:22.000Z,275.02